createdAt,value
2022-11-10T00:00:01.531Z,1.20
2022-11-10T00:02:49.122Z,1.38
2022-11-10T00:05:37.864Z,1.50
2022-11-10T00:08:24.155Z,1.10
2022-11-10T00:11:10.352Z,1.67
2022-11-10T00:14:14.189Z,1.10
2022-11-10T00:17:02.157Z,1.45
2022-11-10T00:19:48.661Z,1.30
2022-11-10T00:22:36.187Z,1.40
2022-11-10T00:25:22.643Z,1.30
2022-11-10T00:28:09.200Z,1.42
2022-11-10T00:30:55.432Z,1.35
2022-11-10T00:33:45.036Z,1.23
2022-11-10T00:36:31.815Z,1.42
2022-11-10T00:39:18.139Z,1.33
2022-11-10T00:42:04.779Z,1.30
2022-11-10T00:44:52.033Z,1.35
2022-11-10T00:47:38.498Z,1.00
2022-11-10T00:50:26.539Z,1.17
2022-11-10T00:53:13.243Z,1.60
2022-11-10T00:55:59.643Z,1.20
2022-11-10T00:58:47.644Z,1.23
2022-11-10T01:01:34.317Z,1.45
2022-11-10T01:04:21.234Z,1.20
2022-11-10T01:07:09.498Z,1.27
2022-11-10T01:09:56.230Z,1.25
2022-11-10T01:12:42.739Z,1.30
2022-11-10T01:15:29.451Z,1.30
2022-11-10T01:18:16.098Z,1.40
2022-11-10T01:21:03.038Z,1.33
2022-11-10T01:23:51.235Z,1.13
2022-11-10T01:26:37.591Z,1.30
2022-11-10T01:29:24.145Z,1.30
2022-11-10T01:32:10.976Z,1.20
2022-11-10T01:34:58.191Z,1.40
2022-11-10T01:37:45.423Z,1.40
2022-11-10T01:40:33.666Z,1.27
2022-11-10T01:43:20.763Z,1.40
2022-11-10T01:46:09.012Z,1.23
2022-11-10T01:49:00.235Z,1.30
2022-11-10T01:51:51.700Z,1.25
2022-11-10T01:54:44.245Z,1.30
2022-11-10T01:57:32.943Z,1.95
2022-11-10T02:00:20.776Z,1.17
2022-11-10T02:03:14.327Z,1.50
2022-11-10T02:06:01.207Z,1.40
2022-11-10T02:08:48.710Z,1.77
2022-11-10T02:11:36.885Z,1.50
2022-11-10T02:14:24.844Z,1.08
2022-11-10T02:17:11.213Z,1.58
2022-11-10T02:20:00.833Z,1.35
2022-11-10T02:22:48.998Z,1.40
2022-11-10T02:25:36.345Z,1.52
2022-11-10T02:28:23.228Z,1.30
2022-11-10T02:31:10.395Z,1.83
2022-11-10T02:33:56.862Z,1.50
2022-11-10T02:36:43.302Z,1.58
2022-11-10T02:39:30.967Z,1.27
2022-11-10T02:42:17.331Z,1.40
2022-11-10T02:45:03.739Z,1.23
2022-11-10T02:47:50.348Z,1.33
2022-11-10T02:50:36.827Z,1.33
2022-11-10T02:53:25.114Z,1.40
2022-11-10T02:56:13.473Z,1.55
2022-11-10T02:59:00.175Z,1.30
2022-11-10T03:01:46.393Z,1.38
2022-11-10T03:04:32.935Z,1.30
2022-11-10T03:07:19.700Z,1.10
2022-11-10T03:10:07.037Z,1.65
2022-11-10T03:12:56.629Z,1.70
2022-11-10T03:15:42.885Z,1.13
2022-11-10T03:18:29.149Z,1.13
2022-11-10T03:21:15.379Z,1.40
2022-11-10T03:24:02.109Z,1.25
2022-11-10T03:26:48.497Z,1.52
2022-11-10T03:29:36.111Z,1.35
2022-11-10T03:32:22.241Z,1.65
2022-11-10T03:35:10.146Z,1.30
2022-11-10T03:37:56.350Z,1.65
2022-11-10T03:41:12.589Z,1.40
2022-11-10T03:43:49.937Z,1.13
2022-11-10T03:46:40.527Z,1.25
2022-11-10T03:49:29.143Z,1.45
2022-11-10T03:52:15.582Z,1.10
2022-11-10T03:55:03.503Z,1.55
2022-11-10T03:57:50.500Z,1.13
2022-11-10T04:00:37.000Z,1.42
2022-11-10T04:03:26.193Z,1.35
2022-11-10T04:06:29.642Z,1.50
2022-11-10T04:09:16.390Z,1.52
2022-11-10T04:12:24.628Z,1.30
2022-11-10T04:15:30.141Z,1.33
2022-11-10T04:18:24.615Z,1.33
2022-11-10T04:21:13.088Z,1.50
2022-11-10T04:23:59.680Z,1.33
2022-11-10T04:26:47.442Z,1.23
2022-11-10T04:29:33.682Z,1.52
2022-11-10T04:32:20.268Z,1.50
2022-11-10T04:35:07.169Z,1.30
2022-11-10T04:37:55.300Z,1.27
2022-11-10T04:40:41.792Z,1.30
2022-11-10T04:43:28.293Z,1.20
2022-11-10T04:46:23.347Z,1.40
2022-11-10T04:49:11.916Z,1.50
2022-11-10T04:51:58.580Z,1.60
2022-11-10T04:54:46.619Z,1.50
2022-11-10T04:57:32.870Z,1.50
2022-11-10T05:00:20.026Z,1.85
2022-11-10T05:03:08.000Z,1.48
2022-11-10T05:05:54.787Z,1.20
2022-11-10T05:08:42.846Z,1.58
2022-11-10T05:11:30.952Z,2.10
2022-11-10T05:14:17.269Z,1.90
2022-11-10T05:17:03.706Z,1.33
2022-11-10T05:19:50.114Z,1.65
2022-11-10T05:22:36.391Z,1.50
2022-11-10T05:25:22.677Z,1.45
2022-11-10T05:28:14.512Z,1.33
2022-11-10T05:31:01.122Z,2.00
2022-11-10T05:33:47.659Z,1.45
2022-11-10T05:36:34.339Z,1.60
2022-11-10T05:39:20.832Z,1.50
2022-11-10T05:42:07.350Z,1.88
2022-11-10T05:44:55.973Z,1.67
2022-11-10T05:47:43.232Z,1.33
2022-11-10T05:50:29.791Z,1.63
2022-11-10T05:53:16.389Z,1.60
2022-11-10T05:56:03.112Z,1.40
2022-11-10T05:58:49.425Z,1.27
2022-11-10T06:01:37.687Z,1.20
2022-11-10T06:04:24.425Z,1.42
2022-11-10T06:07:11.988Z,1.30
2022-11-10T06:09:59.023Z,1.80
2022-11-10T06:12:46.694Z,1.30
2022-11-10T06:15:34.015Z,1.58
2022-11-10T06:18:21.966Z,1.85
2022-11-10T06:21:11.182Z,1.55
2022-11-10T06:23:57.882Z,2.08
2022-11-10T06:26:44.338Z,1.95
2022-11-10T06:29:30.896Z,1.50
2022-11-10T06:32:17.657Z,1.45
2022-11-10T06:35:05.997Z,1.33
2022-11-10T06:38:00.473Z,1.90
2022-11-10T06:40:47.066Z,1.60
2022-11-10T06:43:33.676Z,1.50
2022-11-10T06:46:20.154Z,1.65
2022-11-10T06:49:06.386Z,1.63
2022-11-10T06:51:54.287Z,1.70
2022-11-10T06:54:41.002Z,1.83
2022-11-10T06:57:27.063Z,1.70
2022-11-10T07:00:15.338Z,1.65
2022-11-10T07:03:03.439Z,2.05
2022-11-10T07:05:49.847Z,1.60
2022-11-10T07:08:37.570Z,1.95
2022-11-10T07:11:24.131Z,2.50
2022-11-10T07:14:10.744Z,1.95
2022-11-10T07:16:56.889Z,1.80
2022-11-10T07:19:43.587Z,2.25
2022-11-10T07:22:30.198Z,1.75
2022-11-10T07:25:18.161Z,1.60
2022-11-10T07:28:06.228Z,2.05
2022-11-10T07:30:53.021Z,1.65
2022-11-10T07:33:39.428Z,1.60
2022-11-10T07:36:28.944Z,1.70
2022-11-10T07:39:15.456Z,1.90
2022-11-10T07:42:03.403Z,2.00
2022-11-10T07:44:49.628Z,1.77
2022-11-10T07:47:35.913Z,2.13
2022-11-10T07:50:22.125Z,1.83
2022-11-10T07:53:10.602Z,1.83
2022-11-10T07:55:59.494Z,1.80
2022-11-10T07:58:48.042Z,1.70
2022-11-10T08:01:34.604Z,1.85
2022-11-10T08:04:21.379Z,1.92
2022-11-10T08:07:07.594Z,1.92
2022-11-10T08:09:54.228Z,1.80
2022-11-10T08:12:40.449Z,1.95
2022-11-10T08:15:29.580Z,2.20
2022-11-10T08:18:18.625Z,1.40
2022-11-10T08:21:06.593Z,1.42
2022-11-10T08:23:52.731Z,1.58
2022-11-10T08:26:39.468Z,1.70
2022-11-10T08:29:25.661Z,1.65
2022-11-10T08:32:13.316Z,1.63
2022-11-10T08:34:59.666Z,1.70
2022-11-10T08:37:45.935Z,2.03
2022-11-10T08:40:32.177Z,1.83
2022-11-10T08:43:20.097Z,1.25
2022-11-10T08:46:06.757Z,1.30
2022-11-10T08:48:54.493Z,1.70
2022-11-10T08:51:41.124Z,1.60
2022-11-10T08:54:27.298Z,2.10
2022-11-10T08:57:13.570Z,1.60
2022-11-10T08:59:59.747Z,1.42
2022-11-10T09:02:46.068Z,1.45
2022-11-10T09:05:34.660Z,1.60
2022-11-10T09:08:21.217Z,2.00
2022-11-10T09:11:07.692Z,1.80
2022-11-10T09:13:54.035Z,1.40
2022-11-10T09:16:40.515Z,1.73
2022-11-10T09:19:26.855Z,1.67
2022-11-10T09:22:14.283Z,1.70
2022-11-10T09:25:00.408Z,2.08
2022-11-10T09:27:46.684Z,1.60
2022-11-10T09:30:33.438Z,1.80
2022-11-10T09:33:20.537Z,1.70
2022-11-10T09:36:07.647Z,1.35
2022-11-10T09:38:55.057Z,1.83
2022-11-10T09:41:43.851Z,2.00
2022-11-10T09:44:36.207Z,1.50
2022-11-10T09:47:56.813Z,1.50
2022-11-10T09:54:00.019Z,2.03
2022-11-10T09:56:46.563Z,1.60
2022-11-10T09:59:34.264Z,1.80
2022-11-10T10:02:29.500Z,1.58
2022-11-10T10:05:51.553Z,1.60
2022-11-10T10:08:50.528Z,1.60
2022-11-10T10:11:57.819Z,1.60
2022-11-10T10:15:00.725Z,1.45
2022-11-10T10:17:57.086Z,1.73
2022-11-10T10:20:53.806Z,3.15
2022-11-10T10:24:08.507Z,1.88
2022-11-10T10:26:57.866Z,1.52
2022-11-10T10:29:48.048Z,1.90
2022-11-10T10:32:34.321Z,1.42
2022-11-10T10:35:20.559Z,1.92
2022-11-10T10:38:17.460Z,1.40
2022-11-10T10:41:17.248Z,2.25
2022-11-10T10:44:13.642Z,1.63
2022-11-10T10:47:02.933Z,1.33
2022-11-10T10:49:49.239Z,1.85
2022-11-10T10:52:35.412Z,1.50
2022-11-10T10:55:21.833Z,1.83
2022-11-10T10:58:27.553Z,1.63
2022-11-10T11:01:28.166Z,1.77
2022-11-10T11:04:29.573Z,1.77
2022-11-10T11:07:22.290Z,1.50
2022-11-10T11:10:20.149Z,1.60
2022-11-10T11:13:17.293Z,1.35
2022-11-10T11:16:07.193Z,1.30
2022-11-10T11:18:55.006Z,1.48
2022-11-10T11:21:52.635Z,1.33
2022-11-10T11:24:43.613Z,1.70
2022-11-10T11:27:38.763Z,1.20
2022-11-10T11:30:28.904Z,1.55
2022-11-10T11:33:26.275Z,1.35
2022-11-10T11:36:26.659Z,1.20
2022-11-10T11:39:31.976Z,1.30
2022-11-10T11:42:29.436Z,1.20
2022-11-10T11:45:20.164Z,1.20
2022-11-10T11:48:33.167Z,1.10
2022-11-10T11:51:28.292Z,1.10
2022-11-10T11:54:27.872Z,1.25
2022-11-10T11:57:25.549Z,1.08
2022-11-10T12:00:15.468Z,1.13
2022-11-10T12:03:33.454Z,0.90
2022-11-10T12:06:41.600Z,1.00
2022-11-10T12:09:40.732Z,1.00
2022-11-10T12:13:01.585Z,1.10
2022-11-10T12:15:54.723Z,0.90
2022-11-10T12:21:47.355Z,1.23
2022-11-10T12:25:05.593Z,0.77
2022-11-10T12:27:57.144Z,1.40
2022-11-10T12:30:44.993Z,0.90
2022-11-10T12:33:37.778Z,1.00
2022-11-10T12:36:25.611Z,0.95
2022-11-10T12:39:19.801Z,0.82
2022-11-10T12:42:11.935Z,0.80
2022-11-10T12:45:01.406Z,0.90
2022-11-10T12:47:49.267Z,0.80
2022-11-10T12:50:42.946Z,0.70
2022-11-10T12:53:32.194Z,1.10
2022-11-10T12:56:26.669Z,1.08
2022-11-10T12:59:28.703Z,0.82
2022-11-10T13:02:25.252Z,0.90
2022-11-10T13:05:35.200Z,1.17
2022-11-10T13:08:30.522Z,1.15
2022-11-10T13:11:31.816Z,0.70
2022-11-10T13:14:24.240Z,1.20
2022-11-10T13:17:12.523Z,0.77
2022-11-10T13:20:20.826Z,1.00
2022-11-10T13:23:22.411Z,0.82
2022-11-10T13:26:12.035Z,0.88
2022-11-10T13:29:20.723Z,0.90
2022-11-10T13:32:32.211Z,0.90
2022-11-10T13:35:55.156Z,0.80
2022-11-10T13:38:44.303Z,1.10
2022-11-10T13:41:34.156Z,1.13
2022-11-10T13:44:27.125Z,0.93
2022-11-10T13:47:51.326Z,0.80
2022-11-10T13:50:49.812Z,0.90
2022-11-10T13:53:45.860Z,0.63
2022-11-10T13:56:57.918Z,1.00
2022-11-10T13:59:50.278Z,0.80
2022-11-10T14:02:55.699Z,0.93
2022-11-10T14:06:05.654Z,0.90
2022-11-10T14:08:55.948Z,1.08
2022-11-10T14:11:49.773Z,1.15
2022-11-10T14:14:49.002Z,1.30
2022-11-10T14:17:43.095Z,0.85
2022-11-10T14:20:36.037Z,0.98
2022-11-10T14:23:26.981Z,0.95
2022-11-10T14:26:23.006Z,1.00
2022-11-10T14:29:38.531Z,0.88
2022-11-10T14:32:26.156Z,0.88
2022-11-10T14:35:26.132Z,1.10
2022-11-10T14:38:21.267Z,0.98
2022-11-10T14:41:15.026Z,1.20
2022-11-10T14:44:03.819Z,0.85
2022-11-10T14:46:50.450Z,1.25
2022-11-10T14:49:37.057Z,0.98
2022-11-10T14:52:24.665Z,0.90
2022-11-10T14:55:16.829Z,0.80
2022-11-10T14:58:06.351Z,0.90
2022-11-10T15:00:54.252Z,0.90
2022-11-10T15:03:42.899Z,0.90
2022-11-10T15:06:30.921Z,0.90
2022-11-10T15:09:24.673Z,0.98
2022-11-10T15:12:23.100Z,0.90
2022-11-10T15:15:19.879Z,1.17
2022-11-10T15:18:06.832Z,0.90
2022-11-10T15:21:01.177Z,1.20
2022-11-10T15:23:52.885Z,1.10
2022-11-10T15:26:42.393Z,1.05
2022-11-10T15:29:31.445Z,1.17
2022-11-10T15:32:20.381Z,1.40
2022-11-10T15:35:12.734Z,1.23
2022-11-10T15:38:01.031Z,1.03
2022-11-10T15:40:49.676Z,1.40
2022-11-10T15:43:37.336Z,1.13
2022-11-10T15:46:26.835Z,1.25
2022-11-10T15:49:20.302Z,1.17
2022-11-10T15:52:14.560Z,1.20
2022-11-10T15:55:01.137Z,1.33
2022-11-10T15:57:47.344Z,1.17
2022-11-10T16:00:35.073Z,1.30
2022-11-10T16:03:23.701Z,1.77
2022-11-10T16:06:13.976Z,1.20
2022-11-10T16:09:00.051Z,1.40
2022-11-10T16:11:47.064Z,1.55
2022-11-10T16:14:33.387Z,1.40
2022-11-10T16:17:21.074Z,1.30
2022-11-10T16:20:14.876Z,1.17
2022-11-10T16:23:01.048Z,1.08
2022-11-10T16:25:49.738Z,1.00
2022-11-10T16:28:36.385Z,1.10
2022-11-10T16:31:23.553Z,1.35
2022-11-10T16:34:14.881Z,1.23
2022-11-10T16:37:01.404Z,1.17
2022-11-10T16:39:47.918Z,1.30
2022-11-10T16:42:34.007Z,1.02
2022-11-10T16:45:23.596Z,1.10
2022-11-10T16:48:10.210Z,1.13
2022-11-10T16:51:00.394Z,0.98
2022-11-10T16:53:46.891Z,0.90
2022-11-10T16:56:33.295Z,1.15
2022-11-10T16:59:19.572Z,1.10
2022-11-10T17:02:05.948Z,1.05
2022-11-10T17:04:52.628Z,0.88
2022-11-10T17:07:40.948Z,1.20
2022-11-10T17:10:27.652Z,1.15
2022-11-10T17:13:14.138Z,1.25
2022-11-10T17:16:05.601Z,1.65
2022-11-10T17:18:52.701Z,1.30
2022-11-10T17:21:39.845Z,1.15
2022-11-10T17:24:27.665Z,1.40
2022-11-10T17:27:13.791Z,1.50
2022-11-10T17:29:59.918Z,1.20
2022-11-10T17:33:04.098Z,1.55
2022-11-10T17:35:53.849Z,1.40
2022-11-10T17:38:41.962Z,1.50
2022-11-10T17:41:29.659Z,1.80
2022-11-10T17:44:17.585Z,2.00
2022-11-10T17:47:03.960Z,2.58
2022-11-10T17:49:50.346Z,2.22
2022-11-10T17:52:36.573Z,2.20
2022-11-10T17:55:28.482Z,1.73
2022-11-10T17:58:19.275Z,2.10
2022-11-10T18:01:12.070Z,1.65
2022-11-10T18:03:58.471Z,1.70
2022-11-10T18:06:45.518Z,1.70
2022-11-10T18:09:31.806Z,2.15
2022-11-10T18:12:18.044Z,1.60
2022-11-10T18:15:06.251Z,1.48
2022-11-10T18:17:53.830Z,1.70
2022-11-10T18:20:43.276Z,1.45
2022-11-10T18:23:29.619Z,1.60
2022-11-10T18:26:15.864Z,1.63
2022-11-10T18:29:03.295Z,1.75
2022-11-10T18:31:51.258Z,1.42
2022-11-10T18:34:37.856Z,1.90
2022-11-10T18:37:23.978Z,1.80
2022-11-10T18:40:12.003Z,2.05
2022-11-10T18:43:04.473Z,1.92
2022-11-10T18:48:43.599Z,1.75
2022-11-10T18:51:32.071Z,1.75
2022-11-10T18:54:18.761Z,1.92
2022-11-10T18:57:05.075Z,1.48
2022-11-10T18:59:51.608Z,1.80
2022-11-10T19:02:37.752Z,1.75
2022-11-10T19:05:25.405Z,1.52
2022-11-10T19:08:11.673Z,2.15
2022-11-10T19:10:58.378Z,1.90
2022-11-10T19:13:44.689Z,1.73
2022-11-10T19:16:31.080Z,2.05
2022-11-10T19:19:17.330Z,1.88
2022-11-10T19:22:05.245Z,1.98
2022-11-10T19:25:08.909Z,1.70
2022-11-10T19:27:55.670Z,1.70
2022-11-10T19:30:42.007Z,2.63
2022-11-10T19:33:30.027Z,1.60
2022-11-10T19:36:18.213Z,1.80
2022-11-10T19:39:05.847Z,1.60
2022-11-10T19:41:52.371Z,1.70
2022-11-10T19:44:38.705Z,1.70
2022-11-10T19:47:25.021Z,1.60
2022-11-10T19:50:11.428Z,1.45
2022-11-10T19:52:58.120Z,1.50
2022-11-10T19:55:45.711Z,1.90
2022-11-10T19:58:32.216Z,2.28
2022-11-10T20:01:20.577Z,1.70
2022-11-10T20:04:08.593Z,1.95
2022-11-10T20:07:09.395Z,1.90
2022-11-10T20:09:55.759Z,1.45
2022-11-10T20:12:43.335Z,2.35
2022-11-10T20:15:31.174Z,2.17
2022-11-10T20:18:17.749Z,1.90
2022-11-10T20:21:04.660Z,1.80
2022-11-10T20:23:54.852Z,2.00
2022-11-10T20:26:41.635Z,2.00
2022-11-10T20:29:29.598Z,1.90
2022-11-10T20:32:15.790Z,1.85
2022-11-10T20:35:02.256Z,2.17
2022-11-10T20:37:48.848Z,2.08
2022-11-10T20:40:44.280Z,2.00
2022-11-10T20:43:34.677Z,2.22
2022-11-10T20:46:48.299Z,2.17
2022-11-10T20:49:29.416Z,2.20
2022-11-10T20:52:15.628Z,2.42
2022-11-10T20:55:04.312Z,2.60
2022-11-10T20:57:52.310Z,2.90
2022-11-10T21:00:38.612Z,2.50
2022-11-10T21:03:26.489Z,3.13
2022-11-10T21:06:13.475Z,2.40
2022-11-10T21:08:59.732Z,2.47
2022-11-10T21:12:04.117Z,2.53
2022-11-10T21:14:50.714Z,2.42
2022-11-10T21:17:40.233Z,2.78
2022-11-10T21:20:33.833Z,2.97
2022-11-10T21:23:20.483Z,3.10
2022-11-10T21:26:08.459Z,2.60
2022-11-10T21:28:55.204Z,2.95
2022-11-10T21:31:41.865Z,2.90
2022-11-10T21:34:28.339Z,3.13
2022-11-10T21:37:16.030Z,2.90
2022-11-10T21:40:02.236Z,3.33
2022-11-10T21:42:49.078Z,2.83
2022-11-10T21:45:35.462Z,2.90
2022-11-10T21:48:21.873Z,3.20
2022-11-10T21:51:09.276Z,3.13
2022-11-10T21:53:57.374Z,3.10
2022-11-10T21:56:43.513Z,3.03
2022-11-10T21:59:29.703Z,2.88
2022-11-10T22:02:18.804Z,2.97
2022-11-10T22:05:06.090Z,3.28
2022-11-10T22:07:52.823Z,2.88
2022-11-10T22:10:58.055Z,3.33
2022-11-10T22:14:01.769Z,3.00
2022-11-10T22:17:07.812Z,3.00
2022-11-10T22:19:54.074Z,3.30
2022-11-10T22:22:40.199Z,2.88
2022-11-10T22:25:26.446Z,3.25
2022-11-10T22:28:14.133Z,3.17
2022-11-10T22:31:03.732Z,3.25
2022-11-10T22:33:49.914Z,3.28
2022-11-10T22:36:36.458Z,3.65
2022-11-10T22:39:22.928Z,3.47
2022-11-10T22:42:30.602Z,3.40
2022-11-10T22:45:18.551Z,3.08
2022-11-10T22:48:22.996Z,2.95
2022-11-10T22:51:09.527Z,2.92
2022-11-10T22:53:55.950Z,3.13
2022-11-10T22:56:43.199Z,3.53
2022-11-10T22:59:29.419Z,3.55
2022-11-10T23:02:17.079Z,3.28
2022-11-10T23:05:03.204Z,3.33
2022-11-10T23:07:49.564Z,3.65
2022-11-10T23:10:36.057Z,3.65
2022-11-10T23:13:22.675Z,3.60
2022-11-10T23:16:11.552Z,4.18
2022-11-10T23:19:00.107Z,3.33
2022-11-10T23:21:46.617Z,3.83
2022-11-10T23:24:32.903Z,3.40
2022-11-10T23:27:19.178Z,3.08
2022-11-10T23:30:06.078Z,3.13
2022-11-10T23:32:52.492Z,3.55
2022-11-10T23:35:40.397Z,3.60
2022-11-10T23:38:27.183Z,3.70
2022-11-10T23:41:15.254Z,3.60
2022-11-10T23:44:01.748Z,3.30
2022-11-10T23:46:48.031Z,3.28
2022-11-10T23:49:34.218Z,3.50
2022-11-10T23:52:21.931Z,3.78
2022-11-10T23:55:09.308Z,3.78
2022-11-10T23:57:55.566Z,3.10
